createdAt,value
2019-05-05T00:00:15.641Z,91.247559
2019-05-05T00:01:25.149Z,91.351318
2019-05-05T00:02:34.675Z,91.040039
2019-05-05T00:03:44.580Z,90.826416
2019-05-05T00:04:54.388Z,90.722656
2019-05-05T00:06:05.122Z,90.722656
2019-05-05T00:07:14.694Z,90.826416
2019-05-05T00:08:24.412Z,91.143799
2019-05-05T00:09:31.913Z,90.930176
2019-05-05T00:10:41.464Z,91.040039
2019-05-05T00:11:50.976Z,90.930176
2019-05-05T00:13:00.568Z,91.247559
2019-05-05T00:14:10.099Z,91.040039
2019-05-05T00:15:20.642Z,90.515137
2019-05-05T00:16:30.176Z,90.618896
2019-05-05T00:17:39.719Z,90.618896
2019-05-05T00:18:50.266Z,90.826416
2019-05-05T00:19:59.782Z,90.930176
2019-05-05T00:21:10.318Z,90.826416
2019-05-05T00:22:19.858Z,91.040039
2019-05-05T00:23:29.396Z,91.040039
2019-05-05T00:24:39.937Z,91.040039
2019-05-05T00:25:49.462Z,90.411377
2019-05-05T00:26:59.989Z,90.515137
2019-05-05T00:28:09.511Z,90.411377
2019-05-05T00:29:19.036Z,89.996338
2019-05-05T00:30:29.561Z,90.100098
2019-05-05T00:31:39.100Z,90.307617
2019-05-05T00:32:49.627Z,90.515137
2019-05-05T00:34:00.150Z,90.722656
2019-05-05T00:35:09.696Z,90.930176
2019-05-05T00:36:20.238Z,90.515137
2019-05-05T00:37:29.774Z,90.515137
2019-05-05T00:38:39.314Z,90.826416
2019-05-05T00:39:49.849Z,91.143799
2019-05-05T00:40:59.373Z,91.247559
2019-05-05T00:42:07.878Z,91.558838
2019-05-05T00:43:17.391Z,91.662598
2019-05-05T00:44:26.913Z,91.558838
2019-05-05T00:45:36.437Z,91.558838
2019-05-05T00:46:46.009Z,91.662598
2019-05-05T00:47:55.533Z,91.870117
2019-05-05T00:49:05.426Z,92.077637
2019-05-05T00:50:14.657Z,91.870117
2019-05-05T00:51:24.495Z,91.558838
2019-05-05T00:52:35.141Z,91.558838
2019-05-05T00:53:44.831Z,91.766357
2019-05-05T00:54:52.767Z,91.870117
2019-05-05T00:56:02.288Z,91.973877
2019-05-05T00:57:11.809Z,91.973877
2019-05-05T00:58:21.343Z,91.766357
2019-05-05T00:59:30.879Z,91.870117
2019-05-05T01:00:40.401Z,91.766357
2019-05-05T01:01:49.930Z,91.973877
2019-05-05T01:03:00.436Z,91.973877
2019-05-05T01:04:09.978Z,91.973877
2019-05-05T01:05:19.512Z,92.077637
2019-05-05T01:06:30.024Z,92.181396
2019-05-05T01:07:39.543Z,92.596436
2019-05-05T01:08:49.123Z,92.492676
2019-05-05T01:09:59.654Z,92.181396
2019-05-05T01:11:10.183Z,91.766357
2019-05-05T01:12:19.694Z,91.766357
2019-05-05T01:13:29.215Z,91.766357
2019-05-05T01:14:39.761Z,91.766357
2019-05-05T01:15:49.305Z,91.973877
2019-05-05T01:16:58.831Z,91.973877
2019-05-05T01:18:09.367Z,92.077637
2019-05-05T01:19:19.935Z,91.766357
2019-05-05T01:20:29.473Z,91.662598
2019-05-05T01:21:39.000Z,91.662598
2019-05-05T01:22:49.505Z,91.351318
2019-05-05T01:24:00.031Z,91.247559
2019-05-05T01:25:10.555Z,91.143799
2019-05-05T01:26:20.070Z,91.455078
2019-05-05T01:27:29.585Z,91.662598
2019-05-05T01:28:40.104Z,91.351318
2019-05-05T01:29:49.644Z,91.455078
2019-05-05T01:30:59.167Z,91.351318
2019-05-05T01:32:09.711Z,91.351318
2019-05-05T01:33:20.222Z,91.247559
2019-05-05T01:34:29.759Z,91.455078
2019-05-05T01:35:40.286Z,91.351318
2019-05-05T01:36:49.806Z,91.455078
2019-05-05T01:37:59.332Z,91.662598
2019-05-05T01:39:09.872Z,91.662598
2019-05-05T01:40:19.439Z,91.455078
2019-05-05T01:41:29.966Z,91.558838
2019-05-05T01:42:39.511Z,91.455078
2019-05-05T01:43:50.058Z,91.455078
2019-05-05T01:44:59.602Z,91.662598
2019-05-05T01:46:09.125Z,91.662598
2019-05-05T01:47:19.662Z,91.973877
2019-05-05T01:48:30.185Z,91.766357
2019-05-05T01:49:39.735Z,91.351318
2019-05-05T01:50:50.246Z,91.247559
2019-05-05T01:51:59.759Z,91.351318
2019-05-05T01:53:09.279Z,91.558838
2019-05-05T01:54:19.807Z,91.662598
2019-05-05T01:55:30.363Z,91.870117
2019-05-05T01:56:39.908Z,91.870117
2019-05-05T01:57:49.430Z,91.247559
2019-05-05T01:58:58.976Z,91.143799
2019-05-05T02:00:09.549Z,91.247559
2019-05-05T02:01:20.059Z,91.351318
2019-05-05T02:02:29.586Z,91.143799
2019-05-05T02:03:39.108Z,91.455078
2019-05-05T02:04:49.632Z,91.662598
2019-05-05T02:06:00.184Z,91.870117
2019-05-05T02:07:10.710Z,91.766357
2019-05-05T02:08:20.254Z,91.870117
2019-05-05T02:09:29.808Z,91.662598
2019-05-05T02:10:40.319Z,91.558838
2019-05-05T02:11:50.846Z,91.558838
2019-05-05T02:13:00.367Z,91.558838
2019-05-05T02:14:09.896Z,91.662598
2019-05-05T02:15:20.442Z,91.455078
2019-05-05T02:16:29.950Z,91.455078
2019-05-05T02:17:39.487Z,91.601562
2019-05-05T02:18:50.012Z,91.394043
2019-05-05T02:19:59.567Z,91.601562
2019-05-05T02:21:10.132Z,91.973877
2019-05-05T02:22:19.663Z,91.809082
2019-05-05T02:23:30.176Z,91.601562
2019-05-05T02:24:39.755Z,91.705322
2019-05-05T02:25:49.310Z,91.601562
2019-05-05T02:26:59.823Z,91.705322
2019-05-05T02:28:10.338Z,92.120361
2019-05-05T02:29:19.851Z,92.016602
2019-05-05T02:30:29.411Z,91.601562
2019-05-05T02:31:39.919Z,91.601562
2019-05-05T02:32:50.455Z,91.912842
2019-05-05T02:33:59.972Z,92.120361
2019-05-05T02:35:10.496Z,92.224121
2019-05-05T02:36:21.040Z,92.431641
2019-05-05T02:37:30.571Z,92.431641
2019-05-05T02:38:41.109Z,92.327881
2019-05-05T02:39:58.745Z,92.327881
2019-05-05T02:41:04.899Z,92.431641
2019-05-05T02:42:14.357Z,92.63916
2019-05-05T02:43:21.162Z,92.431641
2019-05-05T02:44:30.692Z,92.327881
2019-05-05T02:45:40.217Z,92.74292
2019-05-05T02:46:49.748Z,92.5354
2019-05-05T02:48:00.262Z,92.224121
2019-05-05T02:49:10.817Z,92.431641
2019-05-05T02:50:20.338Z,92.224121
2019-05-05T02:51:29.874Z,92.431641
2019-05-05T02:52:40.413Z,92.5354
2019-05-05T02:53:49.970Z,92.63916
2019-05-05T02:54:59.484Z,92.74292
2019-05-05T02:56:09.040Z,92.5354
2019-05-05T02:57:19.547Z,92.63916
2019-05-05T02:58:29.071Z,92.5354
2019-05-05T02:59:38.629Z,92.327881
2019-05-05T03:00:48.144Z,92.327881
2019-05-05T03:01:58.686Z,92.5354
2019-05-05T03:03:09.190Z,92.431641
2019-05-05T03:04:18.720Z,92.327881
2019-05-05T03:05:29.263Z,92.431641
2019-05-05T03:06:38.790Z,92.63916
2019-05-05T03:07:48.312Z,92.5354
2019-05-05T03:08:58.830Z,92.120361
2019-05-05T03:10:09.332Z,91.912842
2019-05-05T03:11:18.859Z,91.912842
2019-05-05T03:12:28.437Z,92.016602
2019-05-05T03:13:38.984Z,92.120361
2019-05-05T03:14:49.502Z,92.120361
2019-05-05T03:15:59.044Z,92.327881
2019-05-05T03:17:08.608Z,92.327881
2019-05-05T03:18:19.130Z,92.224121
2019-05-05T03:19:29.647Z,92.224121
2019-05-05T03:20:39.166Z,92.224121
2019-05-05T03:21:48.714Z,92.224121
2019-05-05T03:22:59.227Z,92.016602
2019-05-05T03:24:08.761Z,92.016602
2019-05-05T03:25:19.287Z,92.016602
2019-05-05T03:26:28.811Z,92.120361
2019-05-05T03:27:39.350Z,92.327881
2019-05-05T03:28:49.862Z,92.431641
2019-05-05T03:29:59.394Z,92.224121
2019-05-05T03:31:09.897Z,92.431641
2019-05-05T03:32:20.438Z,92.431641
2019-05-05T03:33:30.966Z,92.120361
2019-05-05T03:34:40.481Z,92.327881
2019-05-05T03:35:50.010Z,92.431641
2019-05-05T03:36:59.570Z,92.327881
2019-05-05T03:38:09.118Z,92.431641
2019-05-05T03:39:19.667Z,92.120361
2019-05-05T03:40:29.180Z,92.120361
2019-05-05T03:41:39.710Z,92.120361
2019-05-05T03:42:49.242Z,92.327881
2019-05-05T03:43:58.780Z,92.74292
2019-05-05T03:45:09.309Z,92.950439
2019-05-05T03:46:19.836Z,92.84668
2019-05-05T03:47:29.356Z,92.84668
2019-05-05T03:48:38.875Z,92.950439
2019-05-05T03:49:48.385Z,93.157959
2019-05-05T03:50:58.903Z,92.5354
2019-05-05T03:52:09.443Z,92.431641
2019-05-05T03:53:18.966Z,92.63916
2019-05-05T03:54:29.495Z,92.431641
2019-05-05T03:55:39.018Z,92.327881
2019-05-05T03:56:48.539Z,92.327881
2019-05-05T03:57:59.100Z,92.63916
2019-05-05T03:59:09.619Z,92.84668
2019-05-05T04:00:19.120Z,92.950439
2019-05-05T04:01:28.651Z,93.054199
2019-05-05T04:02:39.189Z,93.054199
2019-05-05T04:03:49.693Z,92.84668
2019-05-05T04:04:59.215Z,93.157959
2019-05-05T04:06:08.748Z,93.371582
2019-05-05T04:07:19.280Z,92.84668
2019-05-05T04:08:28.803Z,92.431641
2019-05-05T04:09:39.325Z,92.431641
2019-05-05T04:10:48.828Z,92.327881
2019-05-05T04:11:59.364Z,92.120361
2019-05-05T04:13:09.897Z,91.912842
2019-05-05T04:14:19.389Z,92.224121
2019-05-05T04:15:29.929Z,92.285156
2019-05-05T04:16:39.425Z,92.224121
2019-05-05T04:17:48.944Z,92.016602
2019-05-05T04:18:58.460Z,92.016602
2019-05-05T04:20:08.979Z,92.224121
2019-05-05T04:21:30.091Z,92.120361
2019-05-05T04:22:29.005Z,92.327881
2019-05-05T04:23:39.525Z,92.5354
2019-05-05T04:24:49.060Z,92.224121
2019-05-05T04:25:59.585Z,92.492676
2019-05-05T04:27:09.100Z,93.115234
2019-05-05T04:28:19.628Z,93.536377
2019-05-05T04:29:29.132Z,93.011475
2019-05-05T04:30:39.655Z,92.700195
2019-05-05T04:31:49.173Z,92.285156
2019-05-05T04:32:58.702Z,92.285156
2019-05-05T04:34:09.226Z,92.492676
2019-05-05T04:35:18.754Z,92.181396
2019-05-05T04:36:29.255Z,92.077637
2019-05-05T04:37:38.826Z,91.766357
2019-05-05T04:38:48.350Z,91.662598
2019-05-05T04:39:58.876Z,91.247559
2019-05-05T04:41:09.408Z,90.826416
2019-05-05T04:42:18.917Z,90.826416
2019-05-05T04:43:29.441Z,91.143799
2019-05-05T04:44:38.996Z,91.247559
2019-05-05T04:45:49.511Z,91.143799
2019-05-05T04:46:59.038Z,91.351318
2019-05-05T04:48:08.578Z,91.247559
2019-05-05T04:49:19.123Z,91.351318
2019-05-05T04:50:28.638Z,91.143799
2019-05-05T04:51:47.521Z,91.351318
2019-05-05T04:52:49.716Z,91.455078
2019-05-05T04:53:59.225Z,91.662598
2019-05-05T04:55:08.745Z,91.143799
2019-05-05T04:56:19.302Z,90.997314
2019-05-05T04:57:29.820Z,90.515137
2019-05-05T04:58:40.359Z,90.515137
2019-05-05T04:59:49.872Z,90.515137
2019-05-05T05:00:59.380Z,90.100098
2019-05-05T05:02:09.894Z,90.203857
2019-05-05T05:03:19.434Z,90.411377
2019-05-05T05:04:28.953Z,90.722656
2019-05-05T05:05:38.472Z,90.722656
2019-05-05T05:06:49.004Z,90.789795
2019-05-05T05:07:59.558Z,90.582275
2019-05-05T05:09:09.063Z,90.582275
2019-05-05T05:10:19.571Z,90.686035
2019-05-05T05:11:29.088Z,90.472412
2019-05-05T05:12:38.625Z,90.057373
2019-05-05T05:13:48.164Z,90.161133
2019-05-05T05:14:58.678Z,89.227295
2019-05-05T05:16:09.181Z,89.227295
2019-05-05T05:17:19.734Z,89.642334
2019-05-05T05:18:29.198Z,90.161133
2019-05-05T05:19:39.753Z,89.916992
2019-05-05T05:20:49.271Z,90.020752
2019-05-05T05:22:02.079Z,90.124512
2019-05-05T05:23:10.331Z,89.813232
2019-05-05T05:24:19.841Z,89.080811
2019-05-05T05:25:29.383Z,88.873291
2019-05-05T05:26:39.894Z,88.94043
2019-05-05T05:27:49.435Z,88.519287
2019-05-05T05:28:58.966Z,88.562012
2019-05-05T05:30:09.482Z,88.415527
2019-05-05T05:31:19.000Z,88.415527
2019-05-05T05:32:29.512Z,88.623047
2019-05-05T05:33:39.056Z,88.415527
2019-05-05T05:34:48.575Z,88.208008
2019-05-05T05:35:59.113Z,88.104248
2019-05-05T05:37:08.662Z,88.104248
2019-05-05T05:38:18.206Z,87.963867
2019-05-05T05:39:28.713Z,87.756348
2019-05-05T05:40:38.238Z,87.237549
2019-05-05T05:41:48.766Z,87.548828
2019-05-05T05:42:59.291Z,87.860107
2019-05-05T05:44:09.828Z,87.402344
2019-05-05T05:45:19.330Z,87.402344
2019-05-05T05:46:28.846Z,87.609863
2019-05-05T05:47:38.389Z,86.883545
2019-05-05T05:48:48.921Z,86.676025
2019-05-05T05:49:58.456Z,86.157227
2019-05-05T05:51:08.978Z,86.260986
2019-05-05T05:52:19.545Z,85.638428
2019-05-05T05:53:29.005Z,85.742188
2019-05-05T05:54:39.556Z,85.015869
2019-05-05T05:55:49.111Z,85.534668
2019-05-05T05:56:58.637Z,86.053467
2019-05-05T05:58:09.178Z,86.053467
2019-05-05T05:59:18.740Z,85.638428
2019-05-05T06:00:29.268Z,86.224365
2019-05-05T06:01:39.771Z,85.705566
2019-05-05T06:02:49.295Z,85.498047
2019-05-05T06:03:59.834Z,86.535645
2019-05-05T06:05:09.330Z,85.913086
2019-05-05T06:06:19.876Z,86.120605
2019-05-05T06:07:29.385Z,86.59668
2019-05-05T06:08:38.908Z,85.662842
2019-05-05T06:09:49.426Z,84.729004
2019-05-05T06:10:58.980Z,84.979248
2019-05-05T06:12:09.515Z,85.083008
2019-05-05T06:13:19.014Z,85.083008
2019-05-05T06:14:29.564Z,85.083008
2019-05-05T06:15:39.110Z,84.979248
2019-05-05T06:16:49.630Z,85.186768
2019-05-05T06:17:59.150Z,85.601807
2019-05-05T06:19:10.341Z,86.431885
2019-05-05T06:20:19.216Z,85.809326
2019-05-05T06:21:28.773Z,85.083008
2019-05-05T06:22:38.322Z,85.601807
2019-05-05T06:23:48.842Z,84.771729
2019-05-05T06:24:58.399Z,84.460449
2019-05-05T06:26:08.925Z,84.625244
2019-05-05T06:27:19.418Z,85.144043
2019-05-05T06:28:28.944Z,84.936523
2019-05-05T06:29:39.475Z,84.313965
2019-05-05T06:30:48.999Z,84.417725
2019-05-05T06:31:59.525Z,84.521484
2019-05-05T06:33:09.045Z,84.210205
2019-05-05T06:34:18.561Z,84.313965
2019-05-05T06:35:29.110Z,83.898926
2019-05-05T06:36:38.635Z,84.625244
2019-05-05T06:37:49.155Z,84.521484
2019-05-05T06:38:59.671Z,84.417725
2019-05-05T06:40:09.207Z,83.734131
2019-05-05T06:41:18.762Z,83.111572
2019-05-05T06:42:28.305Z,83.837891
2019-05-05T06:43:38.835Z,84.460449
2019-05-05T06:44:49.368Z,83.94165
2019-05-05T06:45:58.881Z,84.14917
2019-05-05T06:47:09.412Z,84.564209
2019-05-05T06:48:18.928Z,84.356689
2019-05-05T06:49:31.112Z,83.795166
2019-05-05T06:50:38.989Z,83.898926
2019-05-05T06:51:48.523Z,83.483887
2019-05-05T06:52:59.051Z,83.068848
2019-05-05T06:54:09.566Z,82.653809
2019-05-05T06:55:19.085Z,83.172607
2019-05-05T06:56:29.623Z,83.276367
2019-05-05T06:57:39.141Z,83.691406
2019-05-05T06:58:49.640Z,83.691406
2019-05-05T06:59:59.166Z,82.861328
2019-05-05T07:01:08.733Z,83.587646
2019-05-05T07:02:19.258Z,83.587646
2019-05-05T07:03:28.787Z,83.691406
2019-05-05T07:04:38.303Z,83.898926
2019-05-05T07:05:48.834Z,83.483887
2019-05-05T07:06:59.355Z,83.630371
2019-05-05T07:08:09.880Z,83.734131
2019-05-05T07:09:19.398Z,84.564209
2019-05-05T07:10:29.931Z,83.837891
2019-05-05T07:11:39.462Z,83.94165
2019-05-05T07:12:48.994Z,83.837891
2019-05-05T07:13:59.506Z,84.667969
2019-05-05T07:15:09.042Z,84.14917
2019-05-05T07:16:19.565Z,83.734131
2019-05-05T07:17:29.069Z,84.14917
2019-05-05T07:18:38.855Z,83.837891
2019-05-05T07:19:49.383Z,83.734131
2019-05-05T07:20:58.917Z,83.898926
2019-05-05T07:22:08.450Z,84.625244
2019-05-05T07:23:18.970Z,84.417725
2019-05-05T07:24:29.503Z,83.587646
2019-05-05T07:25:42.658Z,82.653809
2019-05-05T07:26:49.513Z,82.928467
2019-05-05T07:27:59.013Z,82.928467
2019-05-05T07:29:09.541Z,83.099365
2019-05-05T07:30:20.090Z,82.165527
2019-05-05T07:31:29.592Z,81.854248
2019-05-05T07:32:39.114Z,81.02417
2019-05-05T07:33:49.679Z,81.231689
2019-05-05T07:34:59.199Z,81.231689
2019-05-05T07:36:08.715Z,80.401611
2019-05-05T07:37:19.220Z,79.577637
2019-05-05T07:38:28.733Z,79.675293
2019-05-05T07:39:38.241Z,80.090332
2019-05-05T07:40:48.779Z,79.779053
2019-05-05T07:41:59.298Z,79.125977
2019-05-05T07:43:09.827Z,79.577637
2019-05-05T07:44:26.436Z,79.882812
2019-05-05T07:45:29.882Z,79.638672
2019-05-05T07:46:39.435Z,79.058838
2019-05-05T07:47:48.930Z,79.162598
2019-05-05T07:48:59.432Z,79.882812
2019-05-05T07:50:14.432Z,78.955078
2019-05-05T07:51:19.465Z,79.058838
2019-05-05T07:52:28.990Z,79.473877
2019-05-05T07:53:39.523Z,78.955078
2019-05-05T07:54:49.202Z,78.02124
2019-05-05T07:56:00.405Z,79.058838
2019-05-05T07:57:10.946Z,78.918457
2019-05-05T07:58:20.488Z,78.295898
2019-05-05T07:59:30.024Z,77.56958
2019-05-05T08:00:39.536Z,78.363037
2019-05-05T08:01:49.037Z,78.326416
2019-05-05T08:02:59.547Z,77.807617
2019-05-05T08:04:09.056Z,76.531982
2019-05-05T08:05:18.659Z,75.085449
2019-05-05T08:06:29.184Z,73.431396
2019-05-05T08:07:38.738Z,73.944092
2019-05-05T08:08:49.266Z,75.567627
2019-05-05T08:09:59.794Z,75.567627
2019-05-05T08:11:09.357Z,75.463867
2019-05-05T08:12:19.947Z,75.775146
2019-05-05T08:13:30.472Z,74.810791
2019-05-05T08:14:40.001Z,74.707031
2019-05-05T08:15:57.426Z,73.773193
2019-05-05T08:17:00.060Z,72.637939
2019-05-05T08:18:09.563Z,73.638916
2019-05-05T08:19:19.118Z,73.431396
2019-05-05T08:20:29.653Z,73.742676
2019-05-05T08:21:39.179Z,74.462891
2019-05-05T08:22:48.714Z,74.56665
2019-05-05T08:23:58.261Z,73.0896
2019-05-05T08:25:08.793Z,73.0896
2019-05-05T08:26:19.379Z,71.606445
2019-05-05T08:27:28.888Z,72.332764
2019-05-05T08:28:38.454Z,71.09375
2019-05-05T08:29:48.019Z,71.063232
2019-05-05T08:30:58.565Z,70.648193
2019-05-05T08:32:09.178Z,69.689941
2019-05-05T08:33:18.707Z,69.0979
2019-05-05T08:34:29.232Z,69.854736
2019-05-05T08:35:38.763Z,71.405029
2019-05-05T08:36:49.298Z,70.88623
2019-05-05T08:37:58.949Z,71.783447
2019-05-05T08:39:09.475Z,70.373535
2019-05-05T08:40:19.004Z,70.166016
2019-05-05T08:41:28.533Z,71.19751
2019-05-05T08:42:39.025Z,70.269775
2019-05-05T08:43:49.546Z,70.507812
2019-05-05T08:44:59.072Z,70.715332
2019-05-05T08:46:09.593Z,70.507812
2019-05-05T08:47:19.130Z,69.543457
2019-05-05T08:48:29.646Z,69.439697
2019-05-05T08:49:39.182Z,69.543457
2019-05-05T08:50:49.677Z,70.269775
2019-05-05T08:51:59.203Z,70.678711
2019-05-05T08:53:08.724Z,68.927002
2019-05-05T08:54:19.220Z,69.781494
2019-05-05T08:55:28.736Z,69.342041
2019-05-05T08:56:39.281Z,69.854736
2019-05-05T08:57:49.818Z,68.823242
2019-05-05T08:58:59.350Z,69.134521
2019-05-05T09:00:08.847Z,68.823242
2019-05-05T09:01:18.356Z,68.688965
2019-05-05T09:02:28.878Z,68.066406
2019-05-05T09:03:39.410Z,68.170166
2019-05-05T09:04:48.951Z,69.891357
2019-05-05T09:05:58.464Z,69.512939
2019-05-05T09:07:09.011Z,67.419434
2019-05-05T09:08:18.524Z,67.626953
2019-05-05T09:09:29.033Z,67.596436
2019-05-05T09:10:38.572Z,67.285156
2019-05-05T09:11:49.106Z,67.150879
2019-05-05T09:12:59.628Z,67.663574
2019-05-05T09:14:09.139Z,68.286133
2019-05-05T09:15:19.679Z,67.529297
2019-05-05T09:16:29.194Z,66.607666
2019-05-05T09:17:38.716Z,66.296387
2019-05-05T09:18:49.242Z,64.855957
2019-05-05T09:19:59.842Z,64.4104
2019-05-05T09:21:09.422Z,63.592529
2019-05-05T09:22:18.933Z,63.665771
2019-05-05T09:23:29.568Z,64.355469
2019-05-05T09:24:40.269Z,63.635254
2019-05-05T09:25:49.803Z,63.500977
2019-05-05T09:26:59.311Z,63.195801
2019-05-05T09:28:08.837Z,62.091064
2019-05-05T09:29:19.374Z,62.634277
2019-05-05T09:30:28.876Z,63.867188
2019-05-05T09:31:38.399Z,64.105225
2019-05-05T09:32:48.947Z,64.544678
2019-05-05T09:33:59.459Z,65.679932
2019-05-05T09:35:08.986Z,65.679932
2019-05-05T09:36:18.540Z,64.544678
2019-05-05T09:37:29.059Z,64.208984
2019-05-05T09:38:38.596Z,64.105225
2019-05-05T09:39:49.118Z,63.867188
2019-05-05T09:40:59.612Z,63.427734
2019-05-05T09:42:10.108Z,63.092041
2019-05-05T09:43:19.638Z,61.651611
2019-05-05T09:44:29.156Z,61.621094
2019-05-05T09:45:39.679Z,60.803223
2019-05-05T09:46:49.185Z,59.698486
2019-05-05T09:47:58.732Z,60.803223
2019-05-05T09:49:09.262Z,59.057617
2019-05-05T09:50:18.787Z,60.186768
2019-05-05T09:51:28.307Z,59.979248
2019-05-05T09:52:38.859Z,61.2854
2019-05-05T09:53:49.400Z,58.92334
2019-05-05T09:54:58.932Z,58.306885
2019-05-05T09:56:08.467Z,59.954834
2019-05-05T09:57:18.978Z,57.592773
2019-05-05T09:58:28.509Z,58.001709
2019-05-05T09:59:40.255Z,58.92334
2019-05-05T10:00:49.536Z,58.410645
2019-05-05T10:02:00.046Z,59.002686
2019-05-05T10:03:09.574Z,57.897949
2019-05-05T10:04:19.112Z,56.976318
2019-05-05T10:05:29.626Z,56.695557
2019-05-05T10:06:39.165Z,58.618164
2019-05-05T10:07:49.673Z,57.873535
2019-05-05T10:08:59.201Z,57.873535
2019-05-05T10:10:08.726Z,57.946777
2019-05-05T10:11:19.234Z,56.744385
2019-05-05T10:12:28.764Z,56.536865
2019-05-05T10:13:39.301Z,56.640625
2019-05-05T10:14:48.837Z,57.592773
2019-05-05T10:15:59.373Z,57.666016
2019-05-05T10:17:08.883Z,58.410645
2019-05-05T10:18:19.422Z,58.795166
2019-05-05T10:19:29.918Z,57.537842
2019-05-05T10:20:39.422Z,55.383301
2019-05-05T10:21:48.940Z,55.560303
2019-05-05T10:22:58.482Z,56.048584
2019-05-05T10:24:08.036Z,56.152344
2019-05-05T10:25:18.531Z,57.48291
2019-05-05T10:26:29.054Z,54.205322
2019-05-05T10:27:44.711Z,54.101562
2019-05-05T10:28:50.113Z,56.561279
2019-05-05T10:29:59.616Z,52.874756
2019-05-05T10:31:09.121Z,50.537109
2019-05-05T10:32:18.652Z,51.794434
2019-05-05T10:33:29.177Z,52.307129
2019-05-05T10:34:39.697Z,53.540039
2019-05-05T10:35:49.224Z,53.027344
2019-05-05T10:36:58.746Z,55.407715
2019-05-05T10:38:09.247Z,55.383301
2019-05-05T10:39:19.773Z,55.279541
2019-05-05T10:40:29.303Z,55.175781
2019-05-05T10:41:38.834Z,55.175781
2019-05-05T10:42:49.372Z,55.279541
2019-05-05T10:43:58.875Z,55.895996
2019-05-05T10:45:08.407Z,54.663086
2019-05-05T10:46:18.917Z,54.35791
2019-05-05T10:47:28.420Z,55.255127
2019-05-05T10:48:37.974Z,54.022217
2019-05-05T10:49:47.504Z,52.612305
2019-05-05T10:50:57.048Z,55.078125
2019-05-05T10:52:06.579Z,52.386475
2019-05-05T10:53:16.097Z,52.716064
2019-05-05T10:54:39.693Z,52.410889
2019-05-05T10:55:36.132Z,52.819824
2019-05-05T10:56:45.654Z,52.587891
2019-05-05T10:57:55.170Z,52.587891
2019-05-05T10:59:04.713Z,52.972412
2019-05-05T11:00:15.517Z,53.259277
2019-05-05T11:01:23.762Z,51.00708
2019-05-05T11:02:34.690Z,52.105713
2019-05-05T11:03:44.607Z,51.080322
2019-05-05T11:04:54.557Z,52.209473
2019-05-05T11:06:04.482Z,51.824951
2019-05-05T11:07:14.262Z,52.923584
2019-05-05T11:08:22.123Z,53.363037
2019-05-05T11:09:33.195Z,52.642822
2019-05-05T11:10:41.076Z,51.00708
2019-05-05T11:11:50.583Z,49.078369
2019-05-05T11:13:00.102Z,50.744629
2019-05-05T11:14:09.660Z,51.977539
2019-05-05T11:15:19.164Z,53.204346
2019-05-05T11:16:29.704Z,53.076172
2019-05-05T11:17:39.251Z,50.10376
2019-05-05T11:18:48.800Z,49.694824
2019-05-05T11:19:59.340Z,50.927734
2019-05-05T11:21:08.881Z,51.361084
2019-05-05T11:22:19.400Z,51.873779
2019-05-05T11:23:28.929Z,52.819824
2019-05-05T11:24:39.470Z,53.22876
2019-05-05T11:25:49.988Z,53.637695
2019-05-05T11:26:59.542Z,53.051758
2019-05-05T11:28:09.066Z,54.205322
2019-05-05T11:29:18.630Z,55.358887
2019-05-05T11:30:29.139Z,57.208252
2019-05-05T11:31:38.652Z,58.056641
2019-05-05T11:32:48.175Z,58.776855
2019-05-05T11:33:57.716Z,59.393311
2019-05-05T11:35:07.234Z,60.650635
2019-05-05T11:36:16.734Z,61.474609
2019-05-05T11:37:26.269Z,61.169434
2019-05-05T11:38:36.776Z,61.169434
2019-05-05T11:39:46.300Z,59.857178
2019-05-05T11:40:55.835Z,60.50415
2019-05-05T11:42:05.353Z,60.943604
2019-05-05T11:43:14.874Z,60.736084
2019-05-05T11:44:24.444Z,61.248779
2019-05-05T11:45:34.484Z,60.60791
2019-05-05T11:46:44.245Z,60.528564
2019-05-05T11:47:53.633Z,59.191895
2019-05-05T11:49:04.667Z,60.223389
2019-05-05T11:50:12.024Z,60.015869
2019-05-05T11:51:21.562Z,59.399414
2019-05-05T11:52:31.063Z,59.191895
2019-05-05T11:53:40.610Z,58.47168
2019-05-05T11:54:50.162Z,58.575439
2019-05-05T11:56:00.668Z,59.912109
2019-05-05T11:57:10.193Z,58.679199
2019-05-05T11:58:19.700Z,59.70459
2019-05-05T11:59:30.259Z,59.783936
2019-05-05T12:00:39.792Z,60.784912
2019-05-05T12:01:49.316Z,59.008789
2019-05-05T12:02:59.845Z,58.978271
2019-05-05T12:04:09.365Z,58.026123
2019-05-05T12:05:19.887Z,57.928467
2019-05-05T12:06:29.396Z,57.409668
2019-05-05T12:07:38.940Z,56.768799
2019-05-05T12:08:48.452Z,56.12793
2019-05-05T12:09:57.978Z,56.12793
2019-05-05T12:11:07.491Z,56.02417
2019-05-05T12:12:17.014Z,55.895996
2019-05-05T12:13:26.537Z,54.870605
2019-05-05T12:14:36.065Z,55.59082
2019-05-05T12:15:45.602Z,55.358887
2019-05-05T12:16:55.108Z,53.460693
2019-05-05T12:18:04.629Z,52.209473
2019-05-05T12:19:14.137Z,52.697754
2019-05-05T12:20:24.108Z,50.726318
2019-05-05T12:21:33.791Z,52.923584
2019-05-05T12:22:44.579Z,54.156494
2019-05-05T12:23:54.424Z,53.771973
2019-05-05T12:25:03.925Z,54.870605
2019-05-05T12:26:13.552Z,55.303955
2019-05-05T12:27:20.805Z,55.407715
2019-05-05T12:28:30.310Z,54.693604
2019-05-05T12:29:39.837Z,55.023193
2019-05-05T12:30:49.355Z,55.230713
2019-05-05T12:31:59.894Z,54.589844
2019-05-05T12:33:09.424Z,54.79126
2019-05-05T12:34:18.949Z,54.180908
2019-05-05T12:35:28.482Z,54.669189
2019-05-05T12:36:39.030Z,55.92041
2019-05-05T12:37:49.564Z,56.35376
2019-05-05T12:38:59.076Z,56.384277
2019-05-05T12:40:08.622Z,59.924316
2019-05-05T12:41:20.915Z,63.195801
2019-05-05T12:42:28.636Z,66.851807
2019-05-05T12:43:38.156Z,70.239258
2019-05-05T12:44:48.709Z,72.332764
2019-05-05T12:45:59.213Z,75.152588
2019-05-05T12:47:09.755Z,77.459717
2019-05-05T12:48:19.296Z,76.940918
2019-05-05T12:49:28.843Z,77.252197
2019-05-05T12:50:38.376Z,74.328613
2019-05-05T12:51:48.885Z,73.468018
2019-05-05T12:52:59.381Z,74.151611
2019-05-05T12:54:08.872Z,75.048828
2019-05-05T12:55:19.412Z,73.156738
2019-05-05T12:56:29.917Z,72.814941
2019-05-05T12:57:39.410Z,71.923828
2019-05-05T12:58:48.939Z,68.463135
2019-05-05T12:59:59.464Z,68.640137
2019-05-05T13:01:08.999Z,68.267822
2019-05-05T13:02:19.506Z,67.315674
2019-05-05T13:03:29.041Z,64.923096
2019-05-05T13:04:39.544Z,67.382812
2019-05-05T13:05:49.096Z,63.83667
2019-05-05T13:06:58.612Z,60.583496
2019-05-05T13:08:09.131Z,62.811279
2019-05-05T13:09:19.642Z,64.422607
2019-05-05T13:10:29.195Z,63.092041
2019-05-05T13:11:38.695Z,62.756348
2019-05-05T13:12:48.209Z,58.837891
2019-05-05T13:13:58.727Z,59.350586
2019-05-05T13:15:08.279Z,56.640625
2019-05-05T13:16:18.775Z,60.223389
2019-05-05T13:17:29.293Z,60.760498
2019-05-05T13:18:38.840Z,63.83667
2019-05-05T13:19:48.354Z,64.001465